Time;durP1;ratioP1;P1;durP2;ratioP2;P2;SDS_P1;SDS_P2;PMS_P1;PMS_P2;Temp;Humidity;BMP_temperature;BMP_pressure;BME280_temperature;BME280_humidity;BME280_pressure;Samples;Min_cycle;Max_cycle;Signal;HPM_P1;HPM_P2
2023/01/08 00:00:43;;;;;;;30.23;21.88;;;;;;;1.62;100.00;100436.34;5051830;28;20029;-75
2023/01/08 00:03:10;;;;;;;29.63;22.02;;;;;;;1.49;100.00;100489.56;5051459;28;20084;-74
2023/01/08 00:05:36;;;;;;;30.83;22.25;;;;;;;1.84;100.00;100501.00;5050901;28;20025;-74
2023/01/08 00:08:01;;;;;;;29.95;22.38;;;;;;;1.52;100.00;100425.34;5050655;28;20060;-74
2023/01/08 00:10:26;;;;;;;28.65;22.55;;;;;;;1.68;100.00;100428.94;5051342;28;20033;-74
2023/01/08 00:12:54;;;;;;;31.23;23.58;;;;;;;1.81;100.00;100498.44;5051987;28;20120;-75
2023/01/08 00:15:20;;;;;;;31.10;23.88;;;;;;;1.61;100.00;100490.63;5050757;28;20036;-75
2023/01/08 00:17:45;;;;;;;35.15;25.63;;;;;;;1.76;100.00;100498.34;5050246;28;20415;-75
2023/01/08 00:20:11;;;;;;;32.45;24.52;;;;;;;1.45;100.00;100440.22;5051579;28;20037;-75
2023/01/08 00:22:36;;;;;;;34.28;24.35;;;;;;;1.61;100.00;100495.63;5049866;28;20064;-74
2023/01/08 00:25:01;;;;;;;29.27;22.38;;;;;;;1.56;100.00;100504.75;5050038;28;20033;-75
2023/01/08 00:27:27;;;;;;;29.85;23.58;;;;;;;1.43;100.00;100487.81;5051328;28;20048;-75
2023/01/08 00:29:52;;;;;;;31.38;23.75;;;;;;;1.29;100.00;100486.72;5083424;28;20040;-75
2023/01/08 00:32:18;;;;;;;32.10;23.27;;;;;;;1.04;100.00;100359.47;5054078;28;20037;-74
2023/01/08 00:34:43;;;;;;;33.33;25.08;;;;;;;1.50;100.00;100441.16;5054672;28;20163;-74
2023/01/08 00:37:08;;;;;;;35.13;24.85;;;;;;;2.05;100.00;100470.38;5053842;28;20526;-75
2023/01/08 00:39:34;;;;;;;32.20;24.58;;;;;;;1.72;100.00;100393.06;5054291;28;20033;-74
2023/01/08 00:41:59;;;;;;;31.60;25.13;;;;;;;2.12;100.00;100447.91;5053462;28;20051;-75
2023/01/08 00:44:25;;;;;;;39.03;26.10;;;;;;;1.83;100.00;100388.19;5053246;28;20033;-75
2023/01/08 00:46:50;;;;;;;35.60;25.70;;;;;;;2.25;100.00;100441.41;5054452;28;20497;-75
2023/01/08 00:49:15;;;;;;;35.58;26.60;;;;;;;2.26;100.00;100456.47;5054076;28;20036;-75
2023/01/08 00:51:41;;;;;;;34.25;26.08;;;;;;;2.08;100.00;100435.34;5054981;28;20498;-75
2023/01/08 00:54:08;;;;;;;34.88;25.52;;;;;;;2.44;100.00;100448.31;5054973;28;20487;-75
2023/01/08 00:56:33;;;;;;;35.13;26.92;;;;;;;2.23;100.00;100436.38;5053865;28;20090;-75
2023/01/08 00:58:59;;;;;;;34.83;26.00;;;;;;;2.56;100.00;100435.94;5055013;28;20033;-76
2023/01/08 01:01:24;;;;;;;39.92;27.30;;;;;;;2.39;100.00;100414.84;5054942;28;20124;-77
2023/01/08 01:03:50;;;;;;;34.97;27.30;;;;;;;2.26;100.00;100366.19;5053908;28;20076;-76
2023/01/08 01:06:15;;;;;;;35.95;27.00;;;;;;;2.85;100.00;100438.78;5054489;28;20487;-75
2023/01/08 01:08:42;;;;;;;37.40;26.90;;;;;;;2.39;100.00;100374.69;5053450;28;20622;-76
2023/01/08 01:11:09;;;;;;;37.20;27.88;;;;;;;2.52;100.00;100421.66;5053599;28;20503;-76
2023/01/08 01:13:34;;;;;;;37.80;27.40;;;;;;;2.45;100.00;100422.44;5054960;28;20025;-77
2023/01/08 01:16:01;;;;;;;35.47;27.63;;;;;;;2.00;100.00;100409.34;5052789;28;20032;-76
2023/01/08 01:18:27;;;;;;;35.22;27.75;;;;;;;2.25;100.00;100424.72;5055110;28;20036;-75
2023/01/08 01:20:53;;;;;;;37.55;29.02;;;;;;;2.04;100.00;100354.22;5055302;28;20534;-76
2023/01/08 01:23:18;;;;;;;37.40;29.10;;;;;;;2.40;100.00;100402.31;5053204;28;20082;-75
2023/01/08 01:25:44;;;;;;;36.58;29.70;;;;;;;2.53;100.00;100414.19;5054336;28;20033;-76
2023/01/08 01:28:09;;;;;;;36.35;29.10;;;;;;;2.54;100.00;100423.38;5055068;28;20116;-77
2023/01/08 01:30:34;;;;;;;39.80;29.27;;;;;;;2.15;100.00;100359.38;5053380;28;20029;-77
2023/01/08 01:33:00;;;;;;;38.08;29.13;;;;;;;2.36;100.00;100412.28;5043841;28;20026;-77
2023/01/08 01:35:25;;;;;;;35.47;27.60;;;;;;;2.29;100.00;100423.91;5033642;28;20034;-75
2023/01/08 01:37:51;;;;;;;37.00;27.40;;;;;;;1.99;100.00;100360.00;5033620;28;20201;-77
2023/01/08 01:40:16;;;;;;;34.40;27.58;;;;;;;2.51;100.00;100407.44;5032632;28;20619;-75
2023/01/08 01:42:43;;;;;;;37.78;27.70;;;;;;;2.45;100.00;100410.75;5042679;28;20037;-75
2023/01/08 01:45:17;;;;;;;34.38;26.05;;;;;;;2.32;100.00;100411.41;5054627;28;20573;-75
2023/01/08 01:47:46;;;;;;;35.40;27.10;;;;;;;2.05;100.00;100335.00;5054576;28;20509;-75
2023/01/08 01:50:18;;;;;;;34.95;26.45;;;;;;;1.64;100.00;100357.06;5054422;28;20043;-75
2023/01/08 01:52:54;;;;;;;37.20;26.48;;;;;;;1.06;100.00;100336.97;5052964;28;20044;-75
2023/01/08 01:55:19;;;;;;;34.63;25.33;;;;;;;1.38;100.00;100418.44;5053596;28;20041;-76
2023/01/08 01:57:51;;;;;;;33.20;25.08;;;;;;;1.21;100.00;100407.31;5053812;28;20033;-75
2023/01/08 02:00:17;;;;;;;;;;;;;;;1.08;100.00;100413.78;5054240;28;20041;-75
2023/01/08 02:02:42;;;;;;;40.75;25.98;;;;;;;0.97;100.00;100431.94;5052043;28;19916;-75
2023/01/08 02:05:08;;;;;;;40.70;26.13;;;;;;;1.01;100.00;100423.66;5053512;28;20033;-75
2023/01/08 02:07:46;;;;;;;35.67;26.52;;;;;;;0.93;100.00;100411.00;5053804;28;20052;-76
2023/01/08 02:10:19;;;;;;;38.65;25.98;;;;;;;0.36;100.00;100329.91;5052525;28;20579;-76
2023/01/08 02:12:50;;;;;;;38.15;25.08;;;;;;;0.94;100.00;100407.69;5053473;28;20067;-76
2023/01/08 02:15:23;;;;;;;34.53;23.88;;;;;;;0.52;100.00;100355.22;5052312;28;20035;-75
2023/01/08 02:18:14;;;;;;;33.15;24.75;;;;;;;0.89;100.00;100430.13;5053467;28;20033;-75
2023/01/08 02:20:51;;;;;;;32.15;23.23;;;;;;;1.05;100.00;100403.69;5051991;28;20059;-76
2023/01/08 02:23:34;;;;;;;34.25;25.10;;;;;;;1.02;100.00;100415.31;5053416;28;20025;-76
2023/01/08 02:25:59;;;;;;;33.97;24.85;;;;;;;1.15;100.00;100413.03;5053282;28;20032;-75
2023/01/08 02:28:27;;;;;;;37.45;26.00;;;;;;;0.79;100.00;100412.44;5053711;28;20037;-75
2023/01/08 02:30:54;;;;;;;36.13;26.35;;;;;;;0.96;100.00;100432.72;5053005;28;20484;-75
2023/01/08 02:33:21;;;;;;;40.80;27.20;;;;;;;0.74;100.00;100364.81;5053505;28;20032;-75
2023/01/08 02:36:10;;;;;;;35.97;25.23;;;;;;;1.27;100.00;100414.94;5052121;28;20021;-75
2023/01/08 02:38:41;;;;;;;36.45;27.23;;;;;;;0.84;100.00;100355.78;5053185;28;20120;-75
2023/01/08 02:41:11;;;;;;;35.35;26.63;;;;;;;1.14;100.00;100391.34;5052257;28;20075;-75
2023/01/08 02:43:46;;;;;;;36.80;27.27;;;;;;;1.01;100.00;100406.97;5041301;28;20043;-75
2023/01/08 02:46:22;;;;;;;40.40;29.73;;;;;;;0.74;100.00;100347.28;5033343;28;20060;-75
2023/01/08 02:48:55;;;;;;;40.30;29.48;;;;;;;1.02;100.00;100400.31;5033356;28;20040;-77
2023/01/08 02:51:27;;;;;;;37.67;28.30;;;;;;;1.21;100.00;100404.81;5033548;28;20142;-77
2023/01/08 02:53:59;;;;;;;43.05;29.92;;;;;;;0.84;100.00;100380.81;5033152;28;20061;-75
2023/01/08 02:56:52;;;;;;;41.30;28.20;;;;;;;1.01;100.00;100326.88;5041063;28;20048;-75
2023/01/08 02:59:18;;;;;;;39.15;29.02;;;;;;;1.00;100.00;100399.44;5031775;28;20033;-75
2023/01/08 03:01:45;;;;;;;44.30;29.80;;;;;;;1.02;100.00;100402.81;5032845;28;20034;-75
2023/01/08 03:04:16;;;;;;;45.13;30.10;;;;;;;0.69;100.00;100348.03;5031227;28;20519;-76
2023/01/08 03:06:42;;;;;;;36.80;27.95;;;;;;;1.11;100.00;100342.91;5033015;28;20057;-75
2023/01/08 03:09:08;;;;;;;38.22;28.05;;;;;;;1.49;100.00;100397.75;5032536;28;20042;-75
2023/01/08 03:11:45;;;;;;;37.67;28.08;;;;;;;1.52;100.00;100399.47;5038034;28;20495;-75
2023/01/08 03:14:29;;;;;;;37.08;26.88;;;;;;;1.41;100.00;100385.91;5032509;28;20029;-76
2023/01/08 03:17:00;;;;;;;41.05;27.52;;;;;;;1.69;100.00;100390.50;5046044;28;20040;-77
2023/01/08 03:19:35;;;;;;;38.40;26.83;;;;;;;1.25;100.00;100387.34;5053364;28;20111;-78
2023/01/08 03:22:03;;;;;;;38.95;27.70;;;;;;;1.39;100.00;100408.44;5051556;28;20124;-78
2023/01/08 03:24:38;;;;;;;36.92;26.80;;;;;;;1.76;100.00;100410.66;5053051;28;20033;-76
2023/01/08 03:27:06;;;;;;;36.30;27.05;;;;;;;1.26;100.00;100403.22;5049852;28;20036;-76
2023/01/08 03:29:34;;;;;;;33.15;25.67;;;;;;;1.05;100.00;100312.78;5052526;28;20029;-78
2023/01/08 03:32:03;;;;;;;38.10;27.38;;;;;;;1.69;100.00;100393.00;5052592;28;20033;-80
2023/01/08 03:34:31;;;;;;;39.40;28.45;;;;;;;1.40;100.00;100331.66;5051353;28;20032;-81
2023/01/08 03:36:59;;;;;;;43.97;30.67;;;;;;;1.35;100.00;100396.69;5035346;28;20033;-82
2023/01/08 03:39:42;;;;;;;43.90;30.15;;;;;;;0.66;100.00;100293.81;5035623;28;20036;-80
2023/01/08 03:42:15;;;;;;;37.53;25.35;;;;;;;1.09;100.00;100397.09;5052697;28;20130;-84
2023/01/08 03:44:41;;;;;;;35.70;24.83;;;;;;;0.55;100.00;100326.94;5052541;28;20130;-82
2023/01/08 03:47:09;;;;;;;33.45;24.73;;;;;;;0.78;100.00;100334.03;5051101;28;20053;-81
2023/01/08 03:49:36;;;;;;;38.55;29.52;;;;;;;0.92;100.00;100398.44;5052220;28;20027;-81
2023/01/08 03:52:01;;;;;;;42.67;29.85;;;;;;;0.65;100.00;100417.16;5051072;28;20053;-76
2023/01/08 03:54:32;;;;;;;38.13;28.02;;;;;;;0.67;100.00;100405.50;5050759;28;20075;-77
2023/01/08 03:56:57;;;;;;;38.72;28.20;;;;;;;0.58;100.00;100402.00;5050963;28;20029;-78
2023/01/08 03:59:23;;;;;;;39.40;27.67;;;;;;;0.33;100.00;100368.22;5051951;28;20463;-81
2023/01/08 04:01:49;;;;;;;36.95;27.70;;;;;;;0.36;100.00;100388.25;5052106;28;20025;-78
2023/01/08 04:04:15;;;;;;;39.85;27.88;;;;;;;0.30;100.00;100417.31;5051785;28;20136;-79
2023/01/08 04:06:40;;;;;;;36.95;27.25;;;;;;;0.13;100.00;100396.97;5052485;28;20039;-79
2023/01/08 04:09:07;;;;;;;35.42;27.80;;;;;;;0.08;100.00;100337.72;5052151;28;20044;-78
2023/01/08 04:11:32;;;;;;;38.10;28.05;;;;;;;0.42;100.00;100425.03;5051001;28;20029;-75
2023/01/08 04:13:58;;;;;;;35.55;26.15;;;;;;;-0.47;100.00;100341.56;5052361;28;20470;-79
2023/01/08 04:16:23;;;;;;;35.65;27.40;;;;;;;0.24;100.00;100404.69;5050841;28;20029;-81
2023/01/08 04:18:51;;;;;;;35.88;27.45;;;;;;;0.05;100.00;100412.59;5052553;28;20065;-78
2023/01/08 04:21:16;;;;;;;39.47;28.50;;;;;;;0.20;100.00;100420.44;5050459;28;20057;-76
2023/01/08 04:23:42;;;;;;;47.03;31.02;;;;;;;0.44;100.00;100416.75;5050826;28;20470;-81
2023/01/08 04:26:07;;;;;;;47.42;31.10;;;;;;;0.19;100.00;100427.09;5051991;28;20503;-79
2023/01/08 04:28:33;;;;;;;47.08;30.00;;;;;;;0.07;100.00;100421.84;5052020;28;20419;-79
2023/01/08 04:30:59;;;;;;;48.35;30.52;;;;;;;0.09;100.00;100420.22;5052121;28;20036;-77
2023/01/08 04:33:24;;;;;;;43.30;28.77;;;;;;;-0.02;100.00;100424.97;5051820;28;20056;-78
2023/01/08 04:35:50;;;;;;;50.47;31.92;;;;;;;-0.52;100.00;100354.75;5051835;28;20036;-78
2023/01/08 04:38:16;;;;;;;43.70;29.42;;;;;;;-0.13;100.00;100386.44;5049826;28;20037;-78
2023/01/08 04:40:42;;;;;;;45.05;30.10;;;;;;;0.04;100.00;100426.75;5050417;28;20400;-76
2023/01/08 04:43:07;;;;;;;44.35;29.13;;;;;;;-0.24;100.00;100382.84;5051411;28;20063;-78
2023/01/08 04:45:33;;;;;;;44.85;32.05;;;;;;;0.27;100.00;100417.25;5053021;28;20096;-78
2023/01/08 04:47:59;;;;;;;47.65;32.65;;;;;;;-0.10;100.00;100376.50;5054200;28;20044;-78
2023/01/08 04:50:25;;;;;;;48.08;31.65;;;;;;;0.28;100.00;100434.75;5053681;28;20551;-78
2023/01/08 04:52:51;;;;;;;47.80;32.95;;;;;;;0.32;100.00;100424.00;5051951;28;20049;-79
2023/01/08 04:55:16;;;;;;;44.13;31.65;;;;;;;-0.82;100.00;100306.66;5084378;28;20120;-77
2023/01/08 04:57:42;;;;;;;40.85;29.63;;;;;;;-0.48;100.00;100371.50;5051018;28;20060;-79
2023/01/08 05:00:08;;;;;;;41.28;30.33;;;;;;;0.14;100.00;100432.81;5050862;28;20036;-76
2023/01/08 05:02:33;;;;;;;50.53;34.42;;;;;;;0.05;100.00;100437.59;5031639;28;20045;-76
2023/01/08 05:04:59;;;;;;;65.28;40.90;;;;;;;0.14;100.00;100437.81;5031851;28;20408;-75
2023/01/08 05:07:25;;;;;;;62.08;40.25;;;;;;;-0.53;100.00;100361.41;5031434;28;20037;-76
2023/01/08 05:09:51;;;;;;;58.35;38.35;;;;;;;-0.22;100.00;100416.19;5030170;28;20459;-77
2023/01/08 05:12:16;;;;;;;47.05;32.92;;;;;;;0.00;100.00;100445.00;5030329;28;20083;-76
2023/01/08 05:14:41;;;;;;;43.10;29.50;;;;;;;0.04;100.00;100428.41;5031448;28;20111;-78
2023/01/08 05:17:07;;;;;;;35.42;27.33;;;;;;;0.07;100.00;100439.31;5030417;28;20411;-77
2023/01/08 05:19:32;;;;;;;34.10;25.33;;;;;;;0.08;100.00;100447.66;5033875;28;20041;-78
2023/01/08 05:21:58;;;;;;;37.22;26.90;;;;;;;-0.04;100.00;100426.59;5033387;28;20103;-76
2023/01/08 05:24:23;;;;;;;38.78;28.85;;;;;;;-0.20;100.00;100454.53;5042039;28;20032;-77
2023/01/08 05:26:48;;;;;;;39.75;28.85;;;;;;;-0.26;100.00;100394.47;5034050;28;20030;-77
2023/01/08 05:29:14;;;;;;;37.70;29.23;;;;;;;-0.13;100.00;100450.53;5035691;28;20036;-79
2023/01/08 05:31:40;;;;;;;36.72;28.17;;;;;;;-0.47;100.00;100379.00;5035073;28;20033;-76
2023/01/08 05:34:05;;;;;;;33.15;25.60;;;;;;;3.02;100.00;100387.03;5035114;28;20025;-79
2023/01/08 05:36:31;;;;;;;51.10;35.70;;;;;;;0.30;100.00;100427.31;5039161;28;20476;-77
2023/01/08 05:38:56;;;;;;;39.72;31.00;;;;;;;0.05;100.00;100432.59;5034375;28;20033;-75
2023/01/08 05:41:21;;;;;;;40.78;29.60;;;;;;;0.00;100.00;100433.34;5032401;28;20120;-75
2023/01/08 05:43:47;;;;;;;41.78;32.15;;;;;;;-0.30;100.00;100395.19;5032133;28;20090;-78
2023/01/08 05:46:12;;;;;;;45.05;33.70;;;;;;;-0.07;100.00;100441.53;5033087;28;20116;-76
2023/01/08 05:48:38;;;;;;;44.50;34.53;;;;;;;-0.27;100.00;100430.25;5032138;28;20056;-77
2023/01/08 05:51:04;;;;;;;44.70;32.72;;;;;;;0.24;100.00;100439.69;5030731;28;20134;-78
2023/01/08 05:53:31;;;;;;;44.85;33.42;;;;;;;-0.66;100.00;100354.47;5032814;28;20470;-75
2023/01/08 05:56:07;;;;;;;40.55;31.15;;;;;;;-0.05;100.00;100424.06;5032404;28;20037;-76
2023/01/08 05:58:33;;;;;;;40.88;31.90;;;;;;;-0.24;100.00;100439.47;5032756;28;20033;-75
2023/01/08 06:01:09;;;;;;;42.72;30.90;;;;;;;0.20;100.00;100425.44;5030768;28;20034;-76
2023/01/08 06:03:34;;;;;;;43.15;31.70;;;;;;;0.02;100.00;100420.06;5033245;28;20049;-74
2023/01/08 06:06:01;;;;;;;49.92;33.92;;;;;;;-0.36;100.00;100337.66;5032723;28;20051;-76
2023/01/08 06:08:28;;;;;;;46.60;34.28;;;;;;;-0.14;100.00;100364.75;5033066;28;20026;-76
2023/01/08 06:10:57;;;;;;;49.67;36.90;;;;;;;0.05;100.00;100428.44;5032967;28;20029;-74
2023/01/08 06:13:22;;;;;;;46.88;35.15;;;;;;;0.15;100.00;100425.34;5032262;28;20030;-75
2023/01/08 06:15:48;;;;;;;50.53;36.00;;;;;;;0.23;100.00;100417.97;5031905;28;20096;-73
2023/01/08 06:18:13;;;;;;;51.00;36.25;;;;;;;0.19;100.00;100381.25;5031157;28;20029;-76
2023/01/08 06:20:38;;;;;;;48.20;35.38;;;;;;;0.13;100.00;100361.13;5032387;28;20064;-73
2023/01/08 06:23:04;;;;;;;52.78;38.45;;;;;;;0.51;100.00;100415.22;5051884;28;20463;-74
2023/01/08 06:25:29;;;;;;;56.05;38.83;;;;;;;0.21;100.00;100362.13;5052066;28;20127;-73
2023/01/08 06:27:54;;;;;;;55.90;41.00;;;;;;;1.08;100.00;100416.28;5051895;28;20548;-74
2023/01/08 06:30:21;;;;;;;60.72;40.17;;;;;;;1.36;100.00;100390.03;5052155;28;20057;-76
2023/01/08 06:32:46;;;;;;;56.13;40.10;;;;;;;1.00;100.00;100325.22;5051879;28;20068;-75
2023/01/08 06:35:12;;;;;;;53.95;37.95;;;;;;;1.99;100.00;100342.47;5052193;28;20506;-74
2023/01/08 06:37:37;;;;;;;48.45;35.15;;;;;;;3.00;100.00;100313.38;5051616;28;20033;-72
2023/01/08 06:40:03;;;;;;;51.05;35.95;;;;;;;3.65;100.00;100306.25;5052617;28;20029;-74
2023/01/08 06:42:28;;;;;;;46.40;35.38;;;;;;;3.08;100.00;100252.34;5052052;28;20025;-75
2023/01/08 06:44:54;;;;;;;46.47;35.00;;;;;;;3.86;100.00;100318.94;5052575;28;20123;-75
2023/01/08 06:47:19;;;;;;;47.35;36.85;;;;;;;3.65;100.00;100293.69;5052670;28;20111;-74
2023/01/08 06:49:45;;;;;;;48.60;35.70;;;;;;;4.92;100.00;100358.66;5051342;28;20024;-75
2023/01/08 06:52:10;;;;;;;48.10;36.83;;;;;;;5.76;100.00;100345.13;5052872;28;20063;-75
2023/01/08 06:54:35;;;;;;;53.80;41.22;;;;;;;5.13;100.00;100278.00;5050982;28;20066;-73
2023/01/08 06:57:01;;;;;;;60.50;46.33;;;;;;;5.47;100.00;100261.13;5052401;28;20025;-71
2023/01/08 06:59:26;;;;;;;81.20;57.88;;;;;;;5.96;100.00;100340.06;5052525;28;20033;-74
2023/01/08 07:01:52;;;;;;;82.57;58.70;;;;;;;6.62;100.00;100319.50;5052379;28;20028;-73
2023/01/08 07:04:17;;;;;;;86.45;61.72;;;;;;;5.41;100.00;100283.84;5052360;28;20595;-74
2023/01/08 07:06:43;;;;;;;83.43;58.55;;;;;;;6.78;100.00;100335.38;5052495;28;20025;-74
2023/01/08 07:09:13;;;;;;;83.95;60.58;;;;;;;6.58;100.00;100263.97;5051256;28;20068;-74
2023/01/08 07:11:40;;;;;;;83.47;60.08;;;;;;;7.36;100.00;100330.69;5051998;28;20017;-72
2023/01/08 07:14:06;;;;;;;81.05;58.00;;;;;;;4.93;100.00;100314.97;5051700;28;20139;-71
2023/01/08 07:16:31;;;;;;;81.20;55.35;;;;;;;4.09;100.00;100328.25;5051405;28;20040;-72
2023/01/08 07:18:57;;;;;;;77.53;55.80;;;;;;;4.05;100.00;100353.38;5051599;28;20033;-72
2023/01/08 07:21:22;;;;;;;102.95;67.55;;;;;;;3.79;100.00;100355.78;5051754;28;20024;-71
2023/01/08 07:23:50;;;;;;;76.32;57.92;;;;;;;3.41;100.00;100353.03;5051787;28;20105;-72
2023/01/08 07:26:16;;;;;;;82.00;59.75;;;;;;;3.58;100.00;100420.16;5050370;28;20101;-72
2023/01/08 07:28:42;;;;;;;77.32;59.65;;;;;;;3.28;100.00;100421.59;5051535;28;20120;-72
2023/01/08 07:31:08;;;;;;;91.68;64.80;;;;;;;3.61;100.00;100410.97;5051272;28;20029;-72
2023/01/08 07:33:34;;;;;;;85.22;63.72;;;;;;;3.54;100.00;100377.41;5051700;28;20029;-73
2023/01/08 07:36:00;;;;;;;78.20;56.35;;;;;;;3.38;100.00;100329.56;5050295;28;20029;-73
2023/01/08 07:38:25;;;;;;;55.42;41.85;;;;;;;3.92;100.00;100439.66;5049937;28;20051;-72
2023/01/08 07:40:51;;;;;;;57.55;43.95;;;;;;;3.98;100.00;100449.75;5051115;28;20025;-72
2023/01/08 07:43:16;;;;;;;66.05;48.75;;;;;;;3.87;100.00;100439.63;5051504;28;20040;-73
2023/01/08 07:45:42;;;;;;;65.28;47.45;;;;;;;3.59;100.00;100390.00;5051701;28;20025;-72
2023/01/08 07:48:09;;;;;;;98.97;56.88;;;;;;;4.18;100.00;100431.41;5051379;28;20037;-73
2023/01/08 07:50:36;;;;;;;83.90;52.85;;;;;;;3.69;100.00;100364.09;5051683;28;20028;-72
2023/01/08 07:53:02;;;;;;;71.13;48.63;;;;;;;4.29;100.00;100444.06;5052155;28;20021;-72
2023/01/08 07:55:29;;;;;;;82.53;52.28;;;;;;;4.17;100.00;100427.22;5051201;28;20029;-74
2023/01/08 07:57:54;;;;;;;62.47;45.90;;;;;;;4.01;100.00;100407.88;5051656;28;20033;-74
2023/01/08 08:00:20;;;;;;;68.35;45.95;;;;;;;4.10;100.00;100455.69;5051783;28;20082;-72
2023/01/08 08:02:46;;;;;;;53.38;41.72;;;;;;;3.86;100.00;100448.03;5050396;28;20048;-75
2023/01/08 08:05:12;;;;;;;71.40;49.22;;;;;;;3.45;100.00;100338.81;5051788;28;20086;-73
2023/01/08 08:07:37;;;;;;;120.95;75.10;;;;;;;4.23;100.00;100457.44;5050753;28;20024;-75
2023/01/08 08:10:04;;;;;;;107.90;69.55;;;;;;;3.49;100.00;100375.69;5051596;28;20032;-75
2023/01/08 08:12:29;;;;;;;78.35;54.30;;;;;;;3.85;100.00;100465.59;5051006;28;20049;-76
2023/01/08 08:14:55;;;;;;;79.15;54.42;;;;;;;3.84;100.00;100408.59;5050422;28;20182;-75
2023/01/08 08:17:20;;;;;;;70.70;51.40;;;;;;;3.84;100.00;100413.63;5051302;28;20041;-75
2023/01/08 08:19:45;;;;;;;73.82;53.28;;;;;;;4.52;100.00;100464.28;5051395;28;20037;-75
2023/01/08 08:22:14;;;;;;;69.10;47.95;;;;;;;4.32;100.00;100459.16;5050158;28;20044;-73
2023/01/08 08:24:39;;;;;;;72.78;51.58;;;;;;;4.02;100.00;100464.84;5051581;28;20063;-75
2023/01/08 08:27:05;;;;;;;74.00;52.45;;;;;;;4.40;100.00;100438.22;5051698;28;20040;-75
2023/01/08 08:29:30;;;;;;;74.80;56.38;;;;;;;4.47;100.00;100449.19;5051001;28;20483;-75
2023/01/08 08:31:56;;;;;;;76.97;51.05;;;;;;;4.01;100.00;100430.50;5050903;28;20032;-74
2023/01/08 08:34:21;;;;;;;81.78;54.63;;;;;;;4.33;100.00;100396.28;5051344;28;20484;-75
2023/01/08 08:36:48;;;;;;;69.55;47.65;;;;;;;4.90;100.00;100466.09;5051164;28;20036;-75
2023/01/08 08:39:14;;;;;;;72.72;51.13;;;;;;;4.44;100.00;100466.75;5048157;28;20036;-74
2023/01/08 08:41:41;;;;;;;54.53;40.22;;;;;;;4.26;100.00;100378.59;5041478;28;20033;-75
2023/01/08 08:44:06;;;;;;;55.30;41.20;;;;;;;4.40;100.00;100428.16;5031236;28;20064;-75
2023/01/08 08:46:32;;;;;;;56.28;40.88;;;;;;;4.90;100.00;100461.06;5029985;28;20069;-75
2023/01/08 08:48:57;;;;;;;58.03;42.92;;;;;;;4.55;100.00;100407.25;5030536;28;20095;-74
2023/01/08 08:51:23;;;;;;;49.00;37.40;;;;;;;4.70;100.00;100460.16;5063498;28;20408;-74
2023/01/08 08:53:49;;;;;;;43.05;34.45;;;;;;;4.87;100.00;100456.00;5033074;28;20124;-74
2023/01/08 08:56:14;;;;;;;53.30;39.65;;;;;;;4.84;100.00;100418.22;5035179;28;20029;-74
2023/01/08 08:58:44;;;;;;;36.90;29.48;;;;;;;4.80;100.00;100391.38;5037274;28;20034;-74
2023/01/08 09:01:10;;;;;;;40.08;29.88;;;;;;;5.42;100.00;100451.06;5035046;28;20025;-74
2023/01/08 09:03:36;;;;;;;40.72;30.50;;;;;;;5.25;100.00;100449.38;5035163;28;20050;-75
2023/01/08 09:06:01;;;;;;;36.33;29.65;;;;;;;4.82;100.00;100450.13;5033980;28;20040;-75
2023/01/08 09:08:27;;;;;;;34.28;28.27;;;;;;;5.17;100.00;100435.06;5034881;28;20051;-76
2023/01/08 09:10:52;;;;;;;38.05;29.80;;;;;;;5.38;100.00;100362.00;5035282;28;20052;-75
2023/01/08 09:13:18;;;;;;;35.15;28.20;;;;;;;5.22;100.00;100435.94;5034892;28;20491;-75
2023/01/08 09:15:43;;;;;;;37.50;29.10;;;;;;;5.53;100.00;100371.22;5034705;28;20060;-75
2023/01/08 09:18:09;;;;;;;44.75;34.20;;;;;;;5.52;100.00;100423.34;5033491;28;20028;-76
2023/01/08 09:20:35;;;;;;;39.40;29.77;;;;;;;4.97;100.00;100361.19;5034604;28;20091;-75
2023/01/08 09:23:02;;;;;;;35.97;29.63;;;;;;;5.61;100.00;100419.94;5040471;28;20032;-75
2023/01/08 09:25:28;;;;;;;42.40;29.75;;;;;;;5.85;100.00;100350.16;5053307;28;20120;-75
2023/01/08 09:28:05;;;;;;;38.00;30.05;;;;;;;5.84;100.00;100322.44;5042710;28;20083;-75
2023/01/08 09:30:31;;;;;;;38.63;30.67;;;;;;;6.02;100.00;100396.34;5035007;28;20072;-75
2023/01/08 09:32:58;;;;;;;41.53;30.95;;;;;;;5.49;100.00;100335.09;5034655;28;20030;-74
2023/01/08 09:35:25;;;;;;;36.72;30.67;;;;;;;5.78;100.00;100335.88;5033472;28;20057;-76
2023/01/08 09:37:54;;;;;;;35.63;29.25;;;;;;;6.20;100.00;100387.06;5038099;28;20025;-75
2023/01/08 09:40:23;;;;;;;36.92;29.02;;;;;;;6.32;100.00;100394.59;5051750;28;20025;-75
2023/01/08 09:42:55;;;;;;;32.55;27.10;;;;;;;6.55;100.00;100312.81;5051864;28;20086;-76
2023/01/08 09:45:33;;;;;;;32.35;25.35;;;;;;;6.91;100.00;100369.84;5054329;28;20093;-76
2023/01/08 09:48:11;;;;;;;30.08;22.35;;;;;;;6.97;100.00;100352.91;5054046;28;20112;-75
2023/01/08 09:50:37;;;;;;;27.33;22.73;;;;;;;6.89;100.00;100356.38;5054010;28;20033;-75
2023/01/08 09:53:03;;;;;;;30.00;23.85;;;;;;;7.23;100.00;100349.38;5053730;28;20029;-74
2023/01/08 09:55:33;;;;;;;28.38;22.10;;;;;;;7.04;100.00;100353.72;5053718;28;20087;-77
2023/01/08 09:57:59;;;;;;;31.75;24.65;;;;;;;7.33;100.00;100361.09;5053480;28;20120;-76
2023/01/08 10:00:30;;;;;;;31.15;25.65;;;;;;;6.68;100.00;100265.56;5054663;28;20043;-77
2023/01/08 10:02:56;;;;;;;31.42;25.38;;;;;;;7.38;100.00;100344.16;5054383;28;20057;-77
2023/01/08 10:05:22;;;;;;;28.38;23.42;;;;;;;7.55;100.00;100344.84;5053875;28;20493;-75
2023/01/08 10:07:47;;;;;;;27.50;22.08;;;;;;;6.95;100.00;100268.69;5053866;28;20090;-76
2023/01/08 10:10:28;;;;;;;27.15;20.90;;;;;;;7.48;100.00;100308.66;5052672;28;20025;-75
2023/01/08 10:12:54;;;;;;;24.52;20.08;;;;;;;7.24;100.00;100273.50;5053018;28;20055;-75
2023/01/08 10:15:21;;;;;;;22.27;18.85;;;;;;;7.28;100.00;100249.03;5053919;28;20021;-76
2023/01/08 10:18:10;;;;;;;21.38;18.15;;;;;;;7.67;100.00;100332.06;5054071;28;20040;-77
2023/01/08 10:20:36;;;;;;;27.23;22.13;;;;;;;7.31;100.00;100292.00;5053918;28;20518;-76
2023/01/08 10:23:14;;;;;;;21.90;17.80;;;;;;;7.58;100.00;100317.00;5053123;28;20033;-77
2023/01/08 10:25:53;;;;;;;23.98;17.95;;;;;;;7.60;100.00;100254.56;5053903;28;20094;-77
2023/01/08 10:28:23;;;;;;;25.45;20.25;;;;;;;7.48;100.00;100234.47;5051982;28;20122;-74
2023/01/08 10:30:51;;;;;;;19.92;16.10;;;;;;;7.51;100.00;100249.59;5052522;28;20135;-76
2023/01/08 10:33:29;;;;;;;21.58;17.77;;;;;;;7.54;100.00;100259.69;5053303;28;20112;-75
2023/01/08 10:36:01;;;;;;;23.30;17.48;;;;;;;8.27;100.00;100308.59;5052147;28;20028;-74
2023/01/08 10:38:32;;;;;;;21.58;17.35;;;;;;;7.89;100.00;100260.09;5053134;28;20039;-75
2023/01/08 10:41:02;;;;;;;31.98;22.33;;;;;;;8.21;100.00;100311.16;5053171;28;20033;-75
2023/01/08 10:43:33;;;;;;;20.90;16.15;;;;;;;7.88;100.00;100246.59;5053455;28;20044;-77
2023/01/08 10:46:01;;;;;;;23.35;17.70;;;;;;;8.44;100.00;100299.06;5053272;28;20053;-74
2023/01/08 10:48:51;;;;;;;20.70;16.20;;;;;;;7.99;100.00;100193.31;5053166;28;20037;-76
2023/01/08 10:51:23;;;;;;;22.17;16.70;;;;;;;8.36;100.00;100294.97;5052396;28;20119;-77
2023/01/08 10:53:50;;;;;;;23.17;18.63;;;;;;;8.65;100.00;100298.75;5051824;28;20106;-75
2023/01/08 10:56:27;;;;;;;23.30;16.02;;;;;;;8.48;100.00;100297.31;5052997;28;20065;-74
2023/01/08 10:58:53;;;;;;;18.30;15.88;;;;;;;8.56;100.00;100283.69;5053092;28;20059;-75
2023/01/08 11:01:27;;;;;;;22.13;16.02;;;;;;;8.83;100.00;100259.63;5052902;28;20037;-77
2023/01/08 11:03:59;;;;;;;22.80;17.60;;;;;;;8.81;100.00;100279.06;5051544;28;20049;-74
2023/01/08 11:06:28;;;;;;;22.30;17.95;;;;;;;9.02;100.00;100282.94;5052902;28;20124;-74
2023/01/08 11:08:57;;;;;;;22.35;17.90;;;;;;;8.69;100.00;100209.13;5052648;28;20480;-74
2023/01/08 11:11:23;;;;;;;17.75;15.20;;;;;;;9.18;100.00;100277.59;5051600;28;20024;-77